sensor_id;sensor_type;location;lat;lon;timestamp;temperature;humidity
1936;DHT22;969;49.892;10.896;2024-03-02T00:02:11;21.30;55.70
1936;DHT22;969;49.892;10.896;2024-03-02T00:04:37;21.30;55.70
1936;DHT22;969;49.892;10.896;2024-03-02T00:07:03;21.30;55.70
1936;DHT22;969;49.892;10.896;2024-03-02T00:09:29;21.20;55.60
1936;DHT22;969;49.892;10.896;2024-03-02T00:11:55;21.20;55.60
1936;DHT22;969;49.892;10.896;2024-03-02T00:14:20;21.30;55.70
1936;DHT22;969;49.892;10.896;2024-03-02T00:16:46;21.20;55.60
1936;DHT22;969;49.892;10.896;2024-03-02T00:19:12;21.30;55.70
1936;DHT22;969;49.892;10.896;2024-03-02T00:21:38;21.20;55.60
1936;DHT22;969;49.892;10.896;2024-03-02T00:24:18;21.20;55.60
1936;DHT22;969;49.892;10.896;2024-03-02T00:26:45;21.20;55.70
1936;DHT22;969;49.892;10.896;2024-03-02T00:29:15;21.20;55.70
1936;DHT22;969;49.892;10.896;2024-03-02T00:31:41;21.20;55.70
1936;DHT22;969;49.892;10.896;2024-03-02T00:34:07;21.20;55.70
1936;DHT22;969;49.892;10.896;2024-03-02T00:36:33;21.20;55.70
1936;DHT22;969;49.892;10.896;2024-03-02T00:38:59;21.20;55.70
1936;DHT22;969;49.892;10.896;2024-03-02T00:41:27;21.20;55.70
1936;DHT22;969;49.892;10.896;2024-03-02T00:44:02;21.20;56.20
1936;DHT22;969;49.892;10.896;2024-03-02T00:46:39;21.20;55.70
1936;DHT22;969;49.892;10.896;2024-03-02T00:51:36;21.20;55.70
1936;DHT22;969;49.892;10.896;2024-03-02T00:54:05;21.20;55.70
1936;DHT22;969;49.892;10.896;2024-03-02T00:56:32;21.20;55.70
1936;DHT22;969;49.892;10.896;2024-03-02T00:58:59;21.20;55.70
1936;DHT22;969;49.892;10.896;2024-03-02T01:01:24;21.20;55.70
1936;DHT22;969;49.892;10.896;2024-03-02T01:03:50;21.20;55.70
1936;DHT22;969;49.892;10.896;2024-03-02T01:06:16;21.20;55.70
1936;DHT22;969;49.892;10.896;2024-03-02T01:08:42;21.20;55.70
1936;DHT22;969;49.892;10.896;2024-03-02T01:11:08;21.20;55.70
1936;DHT22;969;49.892;10.896;2024-03-02T01:13:34;21.20;55.70
1936;DHT22;969;49.892;10.896;2024-03-02T01:16:00;21.20;55.70
1936;DHT22;969;49.892;10.896;2024-03-02T01:18:26;21.10;55.60
1936;DHT22;969;49.892;10.896;2024-03-02T01:20:52;21.20;55.70
1936;DHT22;969;49.892;10.896;2024-03-02T01:23:20;21.20;55.70
1936;DHT22;969;49.892;10.896;2024-03-02T01:25:47;21.10;55.60
1936;DHT22;969;49.892;10.896;2024-03-02T01:28:13;21.10;55.60
1936;DHT22;969;49.892;10.896;2024-03-02T01:30:39;21.10;55.60
1936;DHT22;969;49.892;10.896;2024-03-02T01:33:05;21.10;55.70
1936;DHT22;969;49.892;10.896;2024-03-02T01:35:31;21.10;55.60
1936;DHT22;969;49.892;10.896;2024-03-02T01:37:57;21.10;55.60
1936;DHT22;969;49.892;10.896;2024-03-02T01:40:23;21.10;55.60
1936;DHT22;969;49.892;10.896;2024-03-02T01:42:52;21.10;55.60
1936;DHT22;969;49.892;10.896;2024-03-02T01:45:19;21.10;55.70
1936;DHT22;969;49.892;10.896;2024-03-02T01:47:44;21.10;55.60
1936;DHT22;969;49.892;10.896;2024-03-02T01:50:11;21.10;55.60
1936;DHT22;969;49.892;10.896;2024-03-02T01:52:37;21.10;55.70
1936;DHT22;969;49.892;10.896;2024-03-02T01:55:03;21.10;55.70
1936;DHT22;969;49.892;10.896;2024-03-02T01:57:29;21.10;55.60
1936;DHT22;969;49.892;10.896;2024-03-02T01:59:56;21.10;55.60
1936;DHT22;969;49.892;10.896;2024-03-02T02:02:21;21.10;55.70
1936;DHT22;969;49.892;10.896;2024-03-02T02:04:47;21.10;55.70
1936;DHT22;969;49.892;10.896;2024-03-02T02:07:13;21.10;55.70
1936;DHT22;969;49.892;10.896;2024-03-02T02:09:43;21.10;55.70
1936;DHT22;969;49.892;10.896;2024-03-02T02:12:12;21.10;55.70
1936;DHT22;969;49.892;10.896;2024-03-02T02:14:37;21.10;55.70
1936;DHT22;969;49.892;10.896;2024-03-02T02:17:05;21.10;55.70
1936;DHT22;969;49.892;10.896;2024-03-02T02:19:32;21.10;55.70
1936;DHT22;969;49.892;10.896;2024-03-02T02:21:57;21.10;55.70
1936;DHT22;969;49.892;10.896;2024-03-02T02:24:23;21.10;55.60
1936;DHT22;969;49.892;10.896;2024-03-02T02:26:48;21.10;55.70
1936;DHT22;969;49.892;10.896;2024-03-02T02:29:14;21.10;55.70
1936;DHT22;969;49.892;10.896;2024-03-02T02:31:40;21.10;55.70
1936;DHT22;969;49.892;10.896;2024-03-02T02:34:06;21.10;55.70
1936;DHT22;969;49.892;10.896;2024-03-02T02:36:33;21.10;55.70
1936;DHT22;969;49.892;10.896;2024-03-02T02:39:02;21.10;55.70
1936;DHT22;969;49.892;10.896;2024-03-02T02:41:32;21.10;55.70
1936;DHT22;969;49.892;10.896;2024-03-02T02:43:57;21.10;55.70
1936;DHT22;969;49.892;10.896;2024-03-02T02:46:23;21.10;55.70
1936;DHT22;969;49.892;10.896;2024-03-02T02:48:49;21.10;55.70
1936;DHT22;969;49.892;10.896;2024-03-02T02:51:16;21.10;55.80
1936;DHT22;969;49.892;10.896;2024-03-02T02:53:42;21.10;55.70
1936;DHT22;969;49.892;10.896;2024-03-02T02:56:08;21.10;55.70
1936;DHT22;969;49.892;10.896;2024-03-02T02:58:33;21.10;55.70
1936;DHT22;969;49.892;10.896;2024-03-02T03:00:59;21.10;55.70
1936;DHT22;969;49.892;10.896;2024-03-02T03:03:24;21.10;55.70
1936;DHT22;969;49.892;10.896;2024-03-02T03:05:50;21.10;55.70
1936;DHT22;969;49.892;10.896;2024-03-02T03:08:15;21.10;55.70
1936;DHT22;969;49.892;10.896;2024-03-02T03:10:42;21.10;55.70
1936;DHT22;969;49.892;10.896;2024-03-02T03:13:07;21.10;55.70
1936;DHT22;969;49.892;10.896;2024-03-02T03:15:35;21.10;55.70
1936;DHT22;969;49.892;10.896;2024-03-02T03:18:04;21.10;55.70
1936;DHT22;969;49.892;10.896;2024-03-02T03:20:30;21.10;55.70
1936;DHT22;969;49.892;10.896;2024-03-02T03:22:57;21.10;55.70
1936;DHT22;969;49.892;10.896;2024-03-02T03:25:23;21.10;55.70
1936;DHT22;969;49.892;10.896;2024-03-02T03:27:49;21.10;55.70
1936;DHT22;969;49.892;10.896;2024-03-02T03:30:14;21.10;55.70
1936;DHT22;969;49.892;10.896;2024-03-02T03:32:40;21.10;55.70
1936;DHT22;969;49.892;10.896;2024-03-02T03:35:06;21.00;55.60
1936;DHT22;969;49.892;10.896;2024-03-02T03:37:32;21.10;55.70
1936;DHT22;969;49.892;10.896;2024-03-02T03:40:02;21.00;55.60
1936;DHT22;969;49.892;10.896;2024-03-02T03:42:28;21.10;55.70
1936;DHT22;969;49.892;10.896;2024-03-02T03:44:54;21.00;55.60
1936;DHT22;969;49.892;10.896;2024-03-02T03:47:19;21.00;55.60
1936;DHT22;969;49.892;10.896;2024-03-02T03:49:45;21.00;55.60
1936;DHT22;969;49.892;10.896;2024-03-02T03:52:11;21.00;55.60
1936;DHT22;969;49.892;10.896;2024-03-02T03:54:37;21.00;55.70
1936;DHT22;969;49.892;10.896;2024-03-02T03:57:04;21.10;55.70
1936;DHT22;969;49.892;10.896;2024-03-02T03:59:29;21.10;55.70
1936;DHT22;969;49.892;10.896;2024-03-02T04:01:55;21.00;55.60
1936;DHT22;969;49.892;10.896;2024-03-02T04:04:21;21.00;55.60
1936;DHT22;969;49.892;10.896;2024-03-02T04:06:47;21.00;55.70
1936;DHT22;969;49.892;10.896;2024-03-02T04:09:12;21.00;55.60
1936;DHT22;969;49.892;10.896;2024-03-02T04:11:38;21.00;55.60
1936;DHT22;969;49.892;10.896;2024-03-02T04:14:04;21.00;55.60
1936;DHT22;969;49.892;10.896;2024-03-02T04:16:31;21.00;55.70
1936;DHT22;969;49.892;10.896;2024-03-02T04:18:57;21.00;55.70
1936;DHT22;969;49.892;10.896;2024-03-02T04:21:22;21.00;55.70
1936;DHT22;969;49.892;10.896;2024-03-02T04:23:48;21.00;55.60
1936;DHT22;969;49.892;10.896;2024-03-02T04:26:13;21.00;55.70
1936;DHT22;969;49.892;10.896;2024-03-02T04:28:40;21.00;55.60
1936;DHT22;969;49.892;10.896;2024-03-02T04:31:05;21.00;55.60
1936;DHT22;969;49.892;10.896;2024-03-02T04:33:31;21.00;55.60
1936;DHT22;969;49.892;10.896;2024-03-02T04:35:57;21.00;55.60
1936;DHT22;969;49.892;10.896;2024-03-02T04:38:23;21.00;55.60
1936;DHT22;969;49.892;10.896;2024-03-02T04:40:48;21.00;55.60
1936;DHT22;969;49.892;10.896;2024-03-02T04:43:14;21.00;55.70
1936;DHT22;969;49.892;10.896;2024-03-02T04:45:41;21.00;55.60
1936;DHT22;969;49.892;10.896;2024-03-02T04:48:08;21.00;55.70
1936;DHT22;969;49.892;10.896;2024-03-02T04:50:33;21.00;55.60
1936;DHT22;969;49.892;10.896;2024-03-02T04:52:59;21.00;55.70
1936;DHT22;969;49.892;10.896;2024-03-02T04:55:24;21.00;55.70
1936;DHT22;969;49.892;10.896;2024-03-02T04:58:10;21.00;55.70
1936;DHT22;969;49.892;10.896;2024-03-02T05:00:36;21.00;55.70
1936;DHT22;969;49.892;10.896;2024-03-02T05:03:02;21.00;55.70
1936;DHT22;969;49.892;10.896;2024-03-02T05:05:28;21.00;55.70
1936;DHT22;969;49.892;10.896;2024-03-02T05:07:54;21.00;55.70
1936;DHT22;969;49.892;10.896;2024-03-02T05:10:19;21.00;55.70
1936;DHT22;969;49.892;10.896;2024-03-02T05:12:45;21.00;55.70
1936;DHT22;969;49.892;10.896;2024-03-02T05:15:14;21.00;55.70
1936;DHT22;969;49.892;10.896;2024-03-02T05:17:41;21.00;55.70
1936;DHT22;969;49.892;10.896;2024-03-02T05:20:10;21.00;55.70
1936;DHT22;969;49.892;10.896;2024-03-02T05:22:36;21.00;55.70
1936;DHT22;969;49.892;10.896;2024-03-02T05:25:03;21.00;55.70
1936;DHT22;969;49.892;10.896;2024-03-02T05:27:29;21.00;55.70
1936;DHT22;969;49.892;10.896;2024-03-02T05:29:55;21.00;55.70
1936;DHT22;969;49.892;10.896;2024-03-02T05:32:21;21.00;55.70
1936;DHT22;969;49.892;10.896;2024-03-02T05:34:46;21.00;55.70
1936;DHT22;969;49.892;10.896;2024-03-02T05:37:12;21.00;55.70
1936;DHT22;969;49.892;10.896;2024-03-02T05:39:38;20.90;55.60
1936;DHT22;969;49.892;10.896;2024-03-02T05:42:03;21.00;55.80
1936;DHT22;969;49.892;10.896;2024-03-02T05:44:29;20.90;55.60
1936;DHT22;969;49.892;10.896;2024-03-02T05:46:55;20.90;55.60
1936;DHT22;969;49.892;10.896;2024-03-02T05:49:21;20.90;55.60
1936;DHT22;969;49.892;10.896;2024-03-02T05:51:47;21.00;55.70
1936;DHT22;969;49.892;10.896;2024-03-02T05:54:13;20.90;55.60
1936;DHT22;969;49.892;10.896;2024-03-02T05:56:38;20.90;55.60
1936;DHT22;969;49.892;10.896;2024-03-02T05:59:04;20.90;55.60
1936;DHT22;969;49.892;10.896;2024-03-02T06:01:42;20.90;55.60
1936;DHT22;969;49.892;10.896;2024-03-02T06:04:09;21.00;55.70
1936;DHT22;969;49.892;10.896;2024-03-02T06:06:36;20.90;55.60
1936;DHT22;969;49.892;10.896;2024-03-02T06:09:02;20.90;55.60
1936;DHT22;969;49.892;10.896;2024-03-02T06:11:36;21.00;55.70
1936;DHT22;969;49.892;10.896;2024-03-02T06:14:02;21.00;55.70
1936;DHT22;969;49.892;10.896;2024-03-02T06:16:27;20.90;55.60
1936;DHT22;969;49.892;10.896;2024-03-02T06:18:53;20.90;55.70
1936;DHT22;969;49.892;10.896;2024-03-02T06:21:19;21.00;55.70
1936;DHT22;969;49.892;10.896;2024-03-02T06:23:45;20.90;55.60
1936;DHT22;969;49.892;10.896;2024-03-02T06:26:11;21.00;55.70
1936;DHT22;969;49.892;10.896;2024-03-02T06:28:37;21.00;55.70
1936;DHT22;969;49.892;10.896;2024-03-02T06:31:03;21.00;55.70
1936;DHT22;969;49.892;10.896;2024-03-02T06:33:29;21.00;55.70
1936;DHT22;969;49.892;10.896;2024-03-02T06:35:55;21.00;55.70
1936;DHT22;969;49.892;10.896;2024-03-02T06:38:20;21.00;55.70
1936;DHT22;969;49.892;10.896;2024-03-02T06:40:46;21.00;55.70
1936;DHT22;969;49.892;10.896;2024-03-02T06:43:11;21.00;55.70
1936;DHT22;969;49.892;10.896;2024-03-02T06:45:37;21.00;55.70
1936;DHT22;969;49.892;10.896;2024-03-02T06:48:03;21.00;55.70
1936;DHT22;969;49.892;10.896;2024-03-02T06:50:29;21.00;55.70
1936;DHT22;969;49.892;10.896;2024-03-02T06:52:55;21.00;55.70
1936;DHT22;969;49.892;10.896;2024-03-02T06:55:21;21.00;55.60
1936;DHT22;969;49.892;10.896;2024-03-02T06:57:47;21.00;55.50
1936;DHT22;969;49.892;10.896;2024-03-02T07:00:13;21.10;55.60
1936;DHT22;969;49.892;10.896;2024-03-02T07:02:39;21.10;55.60
1936;DHT22;969;49.892;10.896;2024-03-02T07:05:07;21.10;55.60
1936;DHT22;969;49.892;10.896;2024-03-02T07:07:34;21.10;55.60
1936;DHT22;969;49.892;10.896;2024-03-02T07:10:00;21.10;55.60
1936;DHT22;969;49.892;10.896;2024-03-02T07:12:26;21.10;55.50
1936;DHT22;969;49.892;10.896;2024-03-02T07:14:52;21.10;55.50
1936;DHT22;969;49.892;10.896;2024-03-02T07:17:30;21.10;55.50
1936;DHT22;969;49.892;10.896;2024-03-02T07:19:56;21.10;55.50
1936;DHT22;969;49.892;10.896;2024-03-02T07:22:22;21.10;55.60
1936;DHT22;969;49.892;10.896;2024-03-02T07:24:48;21.10;55.50
1936;DHT22;969;49.892;10.896;2024-03-02T07:27:15;21.10;55.50
1936;DHT22;969;49.892;10.896;2024-03-02T07:29:41;21.10;55.50
1936;DHT22;969;49.892;10.896;2024-03-02T07:32:07;21.10;55.50
1936;DHT22;969;49.892;10.896;2024-03-02T07:34:33;21.10;55.50
1936;DHT22;969;49.892;10.896;2024-03-02T07:36:59;21.10;55.60
1936;DHT22;969;49.892;10.896;2024-03-02T07:39:25;21.10;55.60
1936;DHT22;969;49.892;10.896;2024-03-02T07:41:51;21.10;55.60
1936;DHT22;969;49.892;10.896;2024-03-02T07:44:17;21.10;55.70
1936;DHT22;969;49.892;10.896;2024-03-02T07:46:44;21.10;55.70
1936;DHT22;969;49.892;10.896;2024-03-02T07:49:12;21.10;55.70
1936;DHT22;969;49.892;10.896;2024-03-02T07:51:38;21.10;55.60
1936;DHT22;969;49.892;10.896;2024-03-02T07:54:04;21.10;55.60
1936;DHT22;969;49.892;10.896;2024-03-02T07:56:29;21.10;55.60
1936;DHT22;969;49.892;10.896;2024-03-02T07:58:55;21.10;55.60
1936;DHT22;969;49.892;10.896;2024-03-02T08:01:22;21.10;55.60
1936;DHT22;969;49.892;10.896;2024-03-02T08:03:48;21.10;55.60
1936;DHT22;969;49.892;10.896;2024-03-02T08:06:16;21.10;55.60
1936;DHT22;969;49.892;10.896;2024-03-02T08:08:42;21.10;55.60
1936;DHT22;969;49.892;10.896;2024-03-02T08:11:08;21.10;55.70
1936;DHT22;969;49.892;10.896;2024-03-02T08:13:33;21.10;55.80
1936;DHT22;969;49.892;10.896;2024-03-02T08:15:59;21.10;55.80
1936;DHT22;969;49.892;10.896;2024-03-02T08:18:25;21.10;55.80
1936;DHT22;969;49.892;10.896;2024-03-02T08:20:50;21.20;55.90
1936;DHT22;969;49.892;10.896;2024-03-02T08:23:16;21.10;55.90
1936;DHT22;969;49.892;10.896;2024-03-02T08:25:42;21.20;55.90
1936;DHT22;969;49.892;10.896;2024-03-02T08:28:08;21.20;56.00
1936;DHT22;969;49.892;10.896;2024-03-02T08:30:33;21.20;55.90
1936;DHT22;969;49.892;10.896;2024-03-02T08:32:59;21.20;55.90
1936;DHT22;969;49.892;10.896;2024-03-02T08:35:25;21.20;56.00
1936;DHT22;969;49.892;10.896;2024-03-02T08:37:51;21.20;56.00
1936;DHT22;969;49.892;10.896;2024-03-02T08:40:17;21.20;56.00
1936;DHT22;969;49.892;10.896;2024-03-02T08:42:42;21.20;56.00
1936;DHT22;969;49.892;10.896;2024-03-02T08:45:08;21.20;56.00
1936;DHT22;969;49.892;10.896;2024-03-02T08:47:34;21.20;56.00
1936;DHT22;969;49.892;10.896;2024-03-02T08:50:00;21.20;56.00
1936;DHT22;969;49.892;10.896;2024-03-02T08:52:26;21.20;56.00
1936;DHT22;969;49.892;10.896;2024-03-02T08:54:54;21.20;56.00
1936;DHT22;969;49.892;10.896;2024-03-02T08:57:20;21.20;56.00
1936;DHT22;969;49.892;10.896;2024-03-02T08:59:46;21.20;56.00
1936;DHT22;969;49.892;10.896;2024-03-02T09:02:11;21.20;55.90
1936;DHT22;969;49.892;10.896;2024-03-02T09:04:37;21.20;56.00
1936;DHT22;969;49.892;10.896;2024-03-02T09:07:03;21.20;56.00
1936;DHT22;969;49.892;10.896;2024-03-02T09:09:28;21.20;56.00
1936;DHT22;969;49.892;10.896;2024-03-02T09:11:54;21.20;55.90
1936;DHT22;969;49.892;10.896;2024-03-02T09:14:21;21.20;55.90
1936;DHT22;969;49.892;10.896;2024-03-02T09:16:46;21.20;55.90
1936;DHT22;969;49.892;10.896;2024-03-02T09:19:12;21.20;55.90
1936;DHT22;969;49.892;10.896;2024-03-02T09:21:37;21.20;56.00
1936;DHT22;969;49.892;10.896;2024-03-02T09:24:03;21.20;56.00
1936;DHT22;969;49.892;10.896;2024-03-02T09:26:29;21.30;56.10
1936;DHT22;969;49.892;10.896;2024-03-02T09:28:55;21.30;56.10
1936;DHT22;969;49.892;10.896;2024-03-02T09:31:20;21.20;56.00
1936;DHT22;969;49.892;10.896;2024-03-02T09:33:46;21.30;56.10
1936;DHT22;969;49.892;10.896;2024-03-02T09:36:22;21.30;56.10
1936;DHT22;969;49.892;10.896;2024-03-02T09:38:47;21.30;56.00
1936;DHT22;969;49.892;10.896;2024-03-02T09:41:14;21.30;56.10
1936;DHT22;969;49.892;10.896;2024-03-02T09:43:40;21.30;56.10
1936;DHT22;969;49.892;10.896;2024-03-02T09:46:09;21.30;56.10
1936;DHT22;969;49.892;10.896;2024-03-02T09:48:36;21.30;56.00
1936;DHT22;969;49.892;10.896;2024-03-02T09:51:01;21.30;56.10
1936;DHT22;969;49.892;10.896;2024-03-02T09:53:33;21.30;56.00
1936;DHT22;969;49.892;10.896;2024-03-02T09:56:02;21.30;56.00
1936;DHT22;969;49.892;10.896;2024-03-02T09:58:28;21.30;56.00
1936;DHT22;969;49.892;10.896;2024-03-02T10:00:54;21.30;56.10
1936;DHT22;969;49.892;10.896;2024-03-02T10:03:19;21.30;56.00
1936;DHT22;969;49.892;10.896;2024-03-02T10:05:46;21.30;56.00
1936;DHT22;969;49.892;10.896;2024-03-02T10:08:12;21.30;56.00
1936;DHT22;969;49.892;10.896;2024-03-02T10:10:38;21.30;56.00
1936;DHT22;969;49.892;10.896;2024-03-02T10:13:10;21.30;56.00
1936;DHT22;969;49.892;10.896;2024-03-02T10:15:37;21.30;56.00
1936;DHT22;969;49.892;10.896;2024-03-02T10:18:04;21.30;56.10
1936;DHT22;969;49.892;10.896;2024-03-02T10:20:29;21.30;56.10
1936;DHT22;969;49.892;10.896;2024-03-02T10:22:56;21.30;56.10
1936;DHT22;969;49.892;10.896;2024-03-02T10:25:34;21.30;56.10
1936;DHT22;969;49.892;10.896;2024-03-02T10:28:00;21.30;56.10
1936;DHT22;969;49.892;10.896;2024-03-02T10:30:29;21.30;56.10
1936;DHT22;969;49.892;10.896;2024-03-02T10:32:55;21.30;56.10
1936;DHT22;969;49.892;10.896;2024-03-02T10:35:22;21.30;56.10
1936;DHT22;969;49.892;10.896;2024-03-02T10:37:52;21.30;56.10
1936;DHT22;969;49.892;10.896;2024-03-02T10:40:18;21.30;56.10
1936;DHT22;969;49.892;10.896;2024-03-02T10:42:45;21.30;56.10
1936;DHT22;969;49.892;10.896;2024-03-02T10:45:12;21.30;56.00
1936;DHT22;969;49.892;10.896;2024-03-02T10:47:38;21.30;56.10
1936;DHT22;969;49.892;10.896;2024-03-02T10:50:07;21.30;56.00
1936;DHT22;969;49.892;10.896;2024-03-02T10:52:36;21.30;56.00
1936;DHT22;969;49.892;10.896;2024-03-02T10:55:02;21.30;56.00
1936;DHT22;969;49.892;10.896;2024-03-02T10:57:40;21.30;56.00
1936;DHT22;969;49.892;10.896;2024-03-02T11:00:08;21.30;55.90
1936;DHT22;969;49.892;10.896;2024-03-02T11:02:42;21.30;55.90
1936;DHT22;969;49.892;10.896;2024-03-02T11:05:09;21.30;55.90
1936;DHT22;969;49.892;10.896;2024-03-02T11:07:37;21.30;55.90
1936;DHT22;969;49.892;10.896;2024-03-02T11:10:05;21.30;55.90
1936;DHT22;969;49.892;10.896;2024-03-02T11:12:48;21.30;56.00
1936;DHT22;969;49.892;10.896;2024-03-02T11:15:18;21.30;56.00
1936;DHT22;969;49.892;10.896;2024-03-02T11:17:46;21.30;56.00
1936;DHT22;969;49.892;10.896;2024-03-02T11:20:13;21.30;56.10
1936;DHT22;969;49.892;10.896;2024-03-02T11:22:40;21.30;56.10
1936;DHT22;969;49.892;10.896;2024-03-02T11:25:26;21.30;56.10
1936;DHT22;969;49.892;10.896;2024-03-02T11:33:07;21.30;56.10
1936;DHT22;969;49.892;10.896;2024-03-02T11:35:37;21.30;56.10
1936;DHT22;969;49.892;10.896;2024-03-02T11:38:03;21.30;56.10
1936;DHT22;969;49.892;10.896;2024-03-02T11:40:30;21.30;56.20
1936;DHT22;969;49.892;10.896;2024-03-02T11:42:56;21.30;56.20
1936;DHT22;969;49.892;10.896;2024-03-02T11:45:23;21.30;56.10
1936;DHT22;969;49.892;10.896;2024-03-02T11:47:57;21.30;56.10
1936;DHT22;969;49.892;10.896;2024-03-02T11:50:30;21.30;56.10
1936;DHT22;969;49.892;10.896;2024-03-02T11:52:57;21.30;56.10
1936;DHT22;969;49.892;10.896;2024-03-02T11:55:25;21.30;56.10
1936;DHT22;969;49.892;10.896;2024-03-02T11:57:52;21.30;56.10
1936;DHT22;969;49.892;10.896;2024-03-02T12:00:19;21.30;56.10
1936;DHT22;969;49.892;10.896;2024-03-02T12:02:46;21.30;56.10
1936;DHT22;969;49.892;10.896;2024-03-02T12:05:15;21.30;56.10
1936;DHT22;969;49.892;10.896;2024-03-02T12:07:42;21.30;56.10
1936;DHT22;969;49.892;10.896;2024-03-02T12:10:09;21.30;56.20
1936;DHT22;969;49.892;10.896;2024-03-02T12:12:34;21.30;56.10
1936;DHT22;969;49.892;10.896;2024-03-02T12:15:00;21.30;56.10
1936;DHT22;969;49.892;10.896;2024-03-02T12:17:26;21.30;55.90
1936;DHT22;969;49.892;10.896;2024-03-02T12:19:52;21.30;55.80
1936;DHT22;969;49.892;10.896;2024-03-02T12:22:18;21.30;55.80
1936;DHT22;969;49.892;10.896;2024-03-02T12:24:44;21.30;55.70
1936;DHT22;969;49.892;10.896;2024-03-02T12:27:14;21.30;55.70
1936;DHT22;969;49.892;10.896;2024-03-02T12:29:41;21.30;55.70
1936;DHT22;969;49.892;10.896;2024-03-02T12:32:07;21.30;55.60
1936;DHT22;969;49.892;10.896;2024-03-02T12:34:33;21.30;55.60
1936;DHT22;969;49.892;10.896;2024-03-02T12:36:58;21.30;55.60
1936;DHT22;969;49.892;10.896;2024-03-02T12:39:24;21.30;55.50
1936;DHT22;969;49.892;10.896;2024-03-02T12:41:50;21.30;55.50
1936;DHT22;969;49.892;10.896;2024-03-02T12:44:17;21.30;55.50
1936;DHT22;969;49.892;10.896;2024-03-02T12:46:44;21.30;55.50
1936;DHT22;969;49.892;10.896;2024-03-02T12:49:11;21.30;56.00
1936;DHT22;969;49.892;10.896;2024-03-02T12:51:39;21.30;55.40
1936;DHT22;969;49.892;10.896;2024-03-02T12:54:09;21.30;55.50
1936;DHT22;969;49.892;10.896;2024-03-02T12:56:36;21.30;55.70
1936;DHT22;969;49.892;10.896;2024-03-02T12:59:03;21.30;55.70
1936;DHT22;969;49.892;10.896;2024-03-02T13:01:29;21.20;55.70
1936;DHT22;969;49.892;10.896;2024-03-02T13:03:55;21.20;56.30
1936;DHT22;969;49.892;10.896;2024-03-02T13:06:22;21.20;55.70
1936;DHT22;969;49.892;10.896;2024-03-02T13:08:48;21.30;55.80
1936;DHT22;969;49.892;10.896;2024-03-02T13:11:15;21.30;56.40
1936;DHT22;969;49.892;10.896;2024-03-02T13:13:41;21.30;55.80
1936;DHT22;969;49.892;10.896;2024-03-02T13:16:10;21.30;55.80
1936;DHT22;969;49.892;10.896;2024-03-02T13:18:37;21.30;55.80
1936;DHT22;969;49.892;10.896;2024-03-02T13:21:03;21.30;55.80
1936;DHT22;969;49.892;10.896;2024-03-02T13:23:29;21.30;55.80
1936;DHT22;969;49.892;10.896;2024-03-02T13:25:58;21.30;55.80
1936;DHT22;969;49.892;10.896;2024-03-02T13:28:24;21.30;55.80
1936;DHT22;969;49.892;10.896;2024-03-02T13:30:50;21.30;55.70
1936;DHT22;969;49.892;10.896;2024-03-02T13:33:15;21.30;55.80
1936;DHT22;969;49.892;10.896;2024-03-02T13:35:44;21.30;55.70
1936;DHT22;969;49.892;10.896;2024-03-02T13:38:10;21.30;55.70
1936;DHT22;969;49.892;10.896;2024-03-02T13:40:36;21.30;55.70
1936;DHT22;969;49.892;10.896;2024-03-02T13:43:02;21.30;55.70
1936;DHT22;969;49.892;10.896;2024-03-02T13:45:28;21.30;55.70
1936;DHT22;969;49.892;10.896;2024-03-02T13:47:54;21.30;55.70
1936;DHT22;969;49.892;10.896;2024-03-02T13:50:19;21.30;55.70
1936;DHT22;969;49.892;10.896;2024-03-02T13:52:45;21.30;55.70
1936;DHT22;969;49.892;10.896;2024-03-02T13:55:11;21.30;55.70
1936;DHT22;969;49.892;10.896;2024-03-02T13:57:37;21.20;55.60
1936;DHT22;969;49.892;10.896;2024-03-02T14:00:03;21.30;55.70
1936;DHT22;969;49.892;10.896;2024-03-02T14:02:35;21.30;55.70
1936;DHT22;969;49.892;10.896;2024-03-02T14:05:01;21.20;55.60
1936;DHT22;969;49.892;10.896;2024-03-02T14:07:27;21.20;55.60
1936;DHT22;969;49.892;10.896;2024-03-02T14:09:52;21.20;55.60
1936;DHT22;969;49.892;10.896;2024-03-02T14:12:18;21.20;55.60
1936;DHT22;969;49.892;10.896;2024-03-02T14:14:43;21.20;55.60
1936;DHT22;969;49.892;10.896;2024-03-02T14:17:09;21.20;55.70
1936;DHT22;969;49.892;10.896;2024-03-02T14:19:40;21.20;55.60
1936;DHT22;969;49.892;10.896;2024-03-02T14:22:05;21.20;55.60
1936;DHT22;969;49.892;10.896;2024-03-02T14:24:31;21.20;55.70
1936;DHT22;969;49.892;10.896;2024-03-02T14:26:56;21.20;55.70
1936;DHT22;969;49.892;10.896;2024-03-02T14:29:27;21.20;55.60
1936;DHT22;969;49.892;10.896;2024-03-02T14:31:53;21.20;55.60
1936;DHT22;969;49.892;10.896;2024-03-02T14:34:18;21.20;55.60
1936;DHT22;969;49.892;10.896;2024-03-02T14:36:44;21.20;55.60
1936;DHT22;969;49.892;10.896;2024-03-02T14:39:10;21.20;55.60
1936;DHT22;969;49.892;10.896;2024-03-02T14:41:36;21.20;55.60
1936;DHT22;969;49.892;10.896;2024-03-02T14:44:02;21.20;55.60
1936;DHT22;969;49.892;10.896;2024-03-02T14:46:29;21.30;55.70
1936;DHT22;969;49.892;10.896;2024-03-02T14:48:54;21.20;55.60
1936;DHT22;969;49.892;10.896;2024-03-02T14:51:20;21.20;55.60
1936;DHT22;969;49.892;10.896;2024-03-02T14:53:46;21.20;55.60
1936;DHT22;969;49.892;10.896;2024-03-02T14:56:11;21.20;55.60
1936;DHT22;969;49.892;10.896;2024-03-02T14:58:39;21.20;55.60
1936;DHT22;969;49.892;10.896;2024-03-02T15:01:04;21.20;55.60
1936;DHT22;969;49.892;10.896;2024-03-02T15:03:35;21.20;55.60
1936;DHT22;969;49.892;10.896;2024-03-02T15:06:01;21.20;55.70
1936;DHT22;969;49.892;10.896;2024-03-02T15:08:28;21.20;55.60
1936;DHT22;969;49.892;10.896;2024-03-02T15:10:54;21.20;55.60
1936;DHT22;969;49.892;10.896;2024-03-02T15:13:24;21.20;55.60
1936;DHT22;969;49.892;10.896;2024-03-02T15:15:52;21.20;55.60
1936;DHT22;969;49.892;10.896;2024-03-02T15:18:18;21.20;55.60
1936;DHT22;969;49.892;10.896;2024-03-02T15:20:44;21.20;55.60
1936;DHT22;969;49.892;10.896;2024-03-02T15:23:09;21.20;55.60
1936;DHT22;969;49.892;10.896;2024-03-02T15:25:35;21.20;55.60
1936;DHT22;969;49.892;10.896;2024-03-02T15:28:01;21.20;55.60
1936;DHT22;969;49.892;10.896;2024-03-02T15:30:26;21.20;55.60
1936;DHT22;969;49.892;10.896;2024-03-02T15:32:52;21.20;55.60
1936;DHT22;969;49.892;10.896;2024-03-02T15:35:17;21.20;55.60
1936;DHT22;969;49.892;10.896;2024-03-02T15:37:43;21.20;55.60
1936;DHT22;969;49.892;10.896;2024-03-02T15:40:09;21.20;55.60
1936;DHT22;969;49.892;10.896;2024-03-02T15:42:35;21.20;55.60
1936;DHT22;969;49.892;10.896;2024-03-02T15:45:01;21.20;55.60
1936;DHT22;969;49.892;10.896;2024-03-02T15:47:27;21.20;55.50
1936;DHT22;969;49.892;10.896;2024-03-02T15:49:53;21.20;55.50
1936;DHT22;969;49.892;10.896;2024-03-02T15:52:18;21.20;55.50
1936;DHT22;969;49.892;10.896;2024-03-02T15:54:45;21.20;55.50
1936;DHT22;969;49.892;10.896;2024-03-02T15:57:10;21.20;55.50
1936;DHT22;969;49.892;10.896;2024-03-02T15:59:36;21.20;55.50
1936;DHT22;969;49.892;10.896;2024-03-02T16:02:02;21.20;55.50
1936;DHT22;969;49.892;10.896;2024-03-02T16:04:29;21.20;55.50
1936;DHT22;969;49.892;10.896;2024-03-02T16:06:55;21.20;55.50